Time;durP1;ratioP1;P1;durP2;ratioP2;P2;SDS_P1;SDS_P2;PMS_P1;PMS_P2;Temp;Humidity;BMP_temperature;BMP_pressure;BME280_temperature;BME280_humidity;BME280_pressure;Samples;Min_cycle;Max_cycle;Signal;HPM_P1;HPM_P2
2021/12/27 00:00:45;;;;;;;15.05;9.95;;;;;;;2.58;85.83;93018.38;5091145;28;20382;-52
2021/12/27 00:03:11;;;;;;;8.00;5.97;;;;;;;2.72;86.38;93019.25;5086377;28;20537;-52
2021/12/27 00:05:37;;;;;;;9.75;6.97;;;;;;;2.76;86.01;93017.75;5089400;28;20420;-51
2021/12/27 00:08:03;;;;;;;21.27;9.40;;;;;;;2.77;85.96;93023.94;5089513;28;20020;-55
2021/12/27 00:10:29;;;;;;;17.02;10.98;;;;;;;2.53;84.80;93005.56;5090128;28;20069;-52
2021/12/27 00:12:56;;;;;;;21.98;12.55;;;;;;;2.70;85.86;93024.47;5090228;28;20027;-51
2021/12/27 00:15:22;;;;;;;24.70;16.20;;;;;;;2.56;85.88;93026.31;5090839;28;20408;-53
2021/12/27 00:17:48;;;;;;;16.35;10.98;;;;;;;2.54;87.21;93015.19;5090504;28;20023;-53
2021/12/27 00:20:15;;;;;;;14.00;8.45;;;;;;;2.59;88.19;93019.13;5090855;28;20024;-55
2021/12/27 00:22:42;;;;;;;11.30;6.25;;;;;;;2.66;87.92;93024.78;5090161;28;20482;-52
2021/12/27 00:25:08;;;;;;;16.00;9.68;;;;;;;2.54;87.61;93017.16;5090284;28;20684;-59
2021/12/27 00:27:34;;;;;;;33.40;18.90;;;;;;;2.62;87.90;93024.28;5090722;28;20023;-59
2021/12/27 00:29:59;;;;;;;19.75;12.73;;;;;;;2.71;85.96;93013.06;5090565;28;20513;-59
2021/12/27 00:32:25;;;;;;;13.02;9.27;;;;;;;2.87;85.93;93014.16;5089093;28;20540;-59
2021/12/27 00:34:52;;;;;;;13.32;8.88;;;;;;;2.68;85.43;93016.81;5090084;28;20024;-59
2021/12/27 00:37:18;;;;;;;18.23;11.75;;;;;;;2.80;85.80;93015.47;5090034;28;20104;-59
2021/12/27 00:39:44;;;;;;;20.38;10.98;;;;;;;2.58;85.54;93004.75;5088906;28;20089;-60
2021/12/27 00:42:10;;;;;;;20.83;12.75;;;;;;;2.64;86.45;93019.06;5088941;28;20450;-60
2021/12/27 00:44:37;;;;;;;12.52;8.43;;;;;;;2.74;85.88;93024.94;5088947;28;20101;-60
2021/12/27 00:47:04;;;;;;;9.80;6.28;;;;;;;2.48;86.49;93019.19;5090015;28;20047;-60
2021/12/27 00:49:30;;;;;;;18.70;9.07;;;;;;;2.57;86.87;93027.81;5090200;28;20090;-60
2021/12/27 00:51:56;;;;;;;12.93;9.05;;;;;;;2.65;86.46;93033.44;5102609;28;20051;-60
2021/12/27 00:54:22;;;;;;;13.65;8.27;;;;;;;2.35;87.44;93027.97;5099229;28;20032;-60
2021/12/27 00:56:47;;;;;;;18.10;9.38;;;;;;;2.43;87.49;93003.63;5088601;28;20023;-60
2021/12/27 00:59:13;;;;;;;21.15;14.45;;;;;;;2.58;87.84;93023.81;5086966;28;20510;-61
2021/12/27 01:01:39;;;;;;;17.98;10.95;;;;;;;2.76;86.97;93025.91;5091306;28;20028;-60
2021/12/27 01:04:05;;;;;;;13.73;9.13;;;;;;;2.86;86.70;93032.50;5091777;28;20020;-60
2021/12/27 01:06:31;;;;;;;12.32;8.43;;;;;;;2.82;86.81;93028.59;5091720;28;20028;-58
2021/12/27 01:08:57;;;;;;;15.02;9.60;;;;;;;2.88;87.12;93032.03;5091838;28;20032;-57
2021/12/27 01:11:45;;;;;;;23.10;15.05;;;;;;;2.80;87.04;93031.81;5093422;28;20036;-59
2021/12/27 01:14:15;;;;;;;21.23;12.25;;;;;;;2.80;85.80;93029.09;5094156;28;20407;-59
2021/12/27 01:16:43;;;;;;;19.05;13.60;;;;;;;2.92;85.50;93025.00;5093967;28;20032;-58
2021/12/27 01:19:09;;;;;;;22.02;12.65;;;;;;;2.89;85.51;93023.31;5093860;28;20024;-59
2021/12/27 01:21:35;;;;;;;19.58;12.88;;;;;;;3.06;84.60;93018.44;5093931;28;20408;-59
2021/12/27 01:24:02;;;;;;;27.55;13.55;;;;;;;3.01;84.05;93021.25;5093640;28;20020;-58
2021/12/27 01:26:27;;;;;;;18.40;12.05;;;;;;;2.66;84.86;93007.66;5094705;28;20024;-58
2021/12/27 01:28:54;;;;;;;19.98;13.27;;;;;;;2.28;86.29;93004.00;5103323;28;20144;-59
2021/12/27 01:31:20;;;;;;;25.48;17.83;;;;;;;2.44;87.85;93005.88;5104438;28;20020;-59
2021/12/27 01:33:46;;;;;;;19.83;11.90;;;;;;;2.69;87.38;93010.09;5092263;28;20519;-60
2021/12/27 01:36:12;;;;;;;18.23;12.25;;;;;;;2.60;86.16;92998.81;5101303;28;20028;-60
2021/12/27 01:38:40;;;;;;;25.52;15.73;;;;;;;2.38;88.92;93002.44;5098663;28;20024;-60
2021/12/27 01:41:06;;;;;;;17.52;11.60;;;;;;;2.42;88.80;92964.03;5103331;28;20024;-59
2021/12/27 01:43:34;;;;;;;13.68;8.93;;;;;;;2.69;88.74;92990.28;5100448;28;20099;-59
2021/12/27 01:46:04;;;;;;;28.83;12.10;;;;;;;2.83;87.64;92986.44;5113683;28;20023;-59
2021/12/27 01:48:36;;;;;;;45.38;16.67;;;;;;;2.86;86.63;92990.88;5113671;28;20024;-58
2021/12/27 01:51:03;;;;;;;32.80;18.17;;;;;;;2.80;86.24;92984.75;5105707;28;20050;-59
2021/12/27 01:53:30;;;;;;;32.28;16.13;;;;;;;2.74;85.83;92979.34;5113544;28;20023;-58
2021/12/27 01:55:57;;;;;;;37.65;20.65;;;;;;;2.67;85.65;92982.63;5113916;28;20496;-60
2021/12/27 01:58:25;;;;;;;39.78;20.23;;;;;;;2.67;86.03;92988.06;5101501;28;20520;-60
2021/12/27 02:00:56;;;;;;;44.35;25.00;;;;;;;2.72;85.26;92984.56;5092998;28;20103;-60
2021/12/27 02:03:25;;;;;;;47.25;26.02;;;;;;;2.39;86.81;92987.56;5099909;28;20528;-60
2021/12/27 02:05:51;;;;;;;44.42;26.58;;;;;;;2.53;87.27;92986.47;5113439;28;20026;-60
2021/12/27 02:08:17;;;;;;;59.05;30.17;;;;;;;2.72;87.27;92984.56;5113428;28;20031;-59
2021/12/27 02:10:43;;;;;;;51.97;30.42;;;;;;;2.52;88.16;92981.50;5112982;28;20148;-59
2021/12/27 02:13:09;;;;;;;34.13;19.58;;;;;;;2.46;89.43;92976.13;5113105;28;20055;-59
2021/12/27 02:15:35;;;;;;;19.55;12.65;;;;;;;2.67;89.07;92970.97;5113316;28;20032;-60
2021/12/27 02:18:00;;;;;;;20.27;11.85;;;;;;;2.77;88.50;92974.88;5113371;28;20077;-60
2021/12/27 02:20:29;;;;;;;15.93;10.85;;;;;;;2.89;87.94;92966.06;5113206;28;20054;-60
2021/12/27 02:23:00;;;;;;;17.42;9.88;;;;;;;3.01;87.54;92961.97;5113340;28;20412;-60
2021/12/27 02:25:28;;;;;;;22.90;12.68;;;;;;;3.06;86.83;92957.72;5113036;28;20110;-60
2021/12/27 02:27:54;;;;;;;16.95;10.13;;;;;;;2.92;85.82;92959.56;5113009;28;20155;-60
2021/12/27 02:30:22;;;;;;;14.93;10.15;;;;;;;2.76;86.79;92960.50;5113197;28;20091;-60
2021/12/27 02:32:54;;;;;;;20.60;11.57;;;;;;;2.91;86.92;92960.09;5113152;28;20126;-60
2021/12/27 02:35:27;;;;;;;22.05;12.77;;;;;;;2.81;87.00;92956.97;5091751;28;20544;-61
2021/12/27 02:37:53;;;;;;;24.55;13.18;;;;;;;2.87;87.47;92957.66;5090383;28;20032;-60
2021/12/27 02:40:21;;;;;;;22.33;11.68;;;;;;;3.05;88.09;92962.41;5090215;28;20020;-60
2021/12/27 02:43:04;;;;;;;20.17;12.07;;;;;;;3.01;87.44;92970.16;5090588;28;20028;-60
2021/12/27 02:45:32;;;;;;;11.25;7.70;;;;;;;3.02;88.49;92954.53;5090571;28;20516;-61
2021/12/27 02:47:59;;;;;;;10.83;6.97;;;;;;;3.06;90.16;92933.16;5109185;28;20034;-61
2021/12/27 02:50:26;;;;;;;8.65;6.53;;;;;;;3.55;90.46;92985.69;5111522;28;21077;-59
2021/12/27 02:52:52;;;;;;;9.27;6.53;;;;;;;3.57;89.73;92947.69;5111977;28;20024;-60
2021/12/27 02:55:18;;;;;;;11.05;6.68;;;;;;;3.94;88.96;92966.06;5112801;28;20118;-59
2021/12/27 02:57:45;;;;;;;10.50;7.00;;;;;;;3.91;88.17;92967.84;5110288;28;20020;-59
2021/12/27 03:00:15;;;;;;;66.85;29.00;;;;;;;3.74;87.80;92945.50;5110569;28;20030;-60
2021/12/27 03:02:41;;;;;;;41.83;20.90;;;;;;;3.87;87.42;92959.22;5110813;28;20020;-57
2021/12/27 03:05:07;;;;;;;34.13;17.88;;;;;;;3.88;86.69;92951.75;5110474;28;20034;-56
2021/12/27 03:07:33;;;;;;;19.83;11.50;;;;;;;3.86;86.70;92957.72;5110482;28;20081;-59
2021/12/27 03:09:59;;;;;;;26.20;11.73;;;;;;;3.89;87.01;92948.50;5110718;28;20024;-54
2021/12/27 03:12:24;;;;;;;22.08;11.77;;;;;;;3.99;86.75;92946.88;5103205;28;20027;-52
2021/12/27 03:14:50;;;;;;;28.08;13.60;;;;;;;3.91;86.56;92926.88;5102095;28;20031;-55
2021/12/27 03:17:15;;;;;;;15.48;9.27;;;;;;;3.67;86.02;92907.84;5100268;28;20019;-51
2021/12/27 03:19:41;;;;;;;26.60;14.52;;;;;;;3.83;86.40;92932.19;5101822;28;20043;-54
2021/12/27 03:22:06;;;;;;;17.95;10.93;;;;;;;3.91;85.39;92926.88;5101000;28;20077;-51
2021/12/27 03:24:32;;;;;;;46.45;24.02;;;;;;;3.93;86.14;92916.19;5100113;28;20011;-54
2021/12/27 03:26:58;;;;;;;58.05;29.67;;;;;;;3.85;86.08;92926.94;5102271;28;20473;-59
2021/12/27 03:29:23;;;;;;;72.32;39.03;;;;;;;3.62;87.67;92912.13;5100862;28;20043;-59
2021/12/27 03:31:50;;;;;;;37.78;22.58;;;;;;;3.79;88.11;92922.81;5100935;28;20027;-58
2021/12/27 03:34:15;;;;;;;64.40;35.95;;;;;;;3.67;87.42;92930.44;5099639;28;20020;-53
2021/12/27 03:36:42;;;;;;;56.53;34.97;;;;;;;3.44;88.21;92914.88;5097974;28;20122;-52
2021/12/27 03:39:10;;;;;;;32.92;18.95;;;;;;;3.35;88.76;92924.16;5111757;28;20050;-51
2021/12/27 03:41:37;;;;;;;25.15;16.45;;;;;;;3.51;88.80;92915.00;5111574;28;20020;-53
2021/12/27 03:44:04;;;;;;;31.17;17.77;;;;;;;3.58;89.49;92919.13;5107748;28;20031;-53
2021/12/27 03:46:30;;;;;;;21.05;13.75;;;;;;;3.72;88.36;92912.50;5101601;28;20022;-58
2021/12/27 03:48:55;;;;;;;37.03;20.95;;;;;;;3.57;89.20;92912.94;5103768;28;20039;-60
2021/12/27 03:51:21;;;;;;;49.80;26.08;;;;;;;3.61;88.61;92905.22;5111432;28;20040;-60
2021/12/27 03:53:47;;;;;;;98.05;47.72;;;;;;;3.63;88.47;92907.41;5111294;28;20055;-60
2021/12/27 03:56:13;;;;;;;73.95;40.15;;;;;;;3.63;89.14;92902.69;5111619;28;20076;-58
2021/12/27 03:58:56;;;;;;;54.20;29.38;;;;;;;3.48;88.63;92898.94;5097175;28;20032;-59
2021/12/27 04:01:23;;;;;;;53.70;27.77;;;;;;;3.51;88.79;92901.34;5091115;28;20394;-60
2021/12/27 04:03:52;;;;;;;45.88;24.92;;;;;;;3.57;88.59;92899.28;5090804;28;20508;-58
2021/12/27 04:06:19;;;;;;;35.63;19.58;;;;;;;3.64;88.80;92900.69;5091073;28;20028;-58
2021/12/27 04:08:44;;;;;;;15.05;8.10;;;;;;;3.77;88.93;92906.97;5091051;28;20054;-59
2021/12/27 04:11:10;;;;;;;15.35;7.57;;;;;;;3.91;89.41;92901.56;5090823;28;20489;-59
2021/12/27 04:13:36;;;;;;;17.10;7.28;;;;;;;3.89;89.96;92904.81;5090948;28;20493;-63
2021/12/27 04:16:02;;;;;;;10.85;6.05;;;;;;;4.00;89.36;92910.13;5090798;28;20615;-59
2021/12/27 04:18:28;;;;;;;11.07;7.00;;;;;;;4.03;89.63;92898.13;5090817;28;20444;-59
2021/12/27 04:20:53;;;;;;;10.30;7.10;;;;;;;4.04;89.33;92896.91;5090404;28;20516;-59
2021/12/27 04:23:19;;;;;;;11.93;6.95;;;;;;;4.09;88.58;92904.28;5090774;28;20020;-59
2021/12/27 04:25:44;;;;;;;15.32;9.55;;;;;;;4.15;88.25;92907.66;5090685;28;20035;-60
2021/12/27 04:28:11;;;;;;;12.52;8.68;;;;;;;4.06;88.25;92918.97;5090353;28;20420;-60
2021/12/27 04:30:36;;;;;;;13.50;7.85;;;;;;;4.18;87.96;92908.63;5090451;28;20032;-60
2021/12/27 04:33:03;;;;;;;12.20;7.70;;;;;;;4.23;87.10;92907.78;5090046;28;20073;-60
2021/12/27 04:35:29;;;;;;;11.63;7.82;;;;;;;4.31;86.63;92909.38;5090160;28;20054;-60
2021/12/27 04:37:55;;;;;;;12.50;8.43;;;;;;;4.32;86.59;92905.38;5090560;28;20474;-60
2021/12/27 04:40:22;;;;;;;12.98;7.63;;;;;;;4.32;86.07;92912.84;5090178;28;20028;-59
2021/12/27 04:42:54;;;;;;;11.95;7.30;;;;;;;4.36;86.05;92914.03;5090465;28;20508;-62
2021/12/27 04:45:19;;;;;;;13.27;7.43;;;;;;;4.41;86.41;92918.66;5090571;28;20024;-62
2021/12/27 04:47:45;;;;;;;16.48;7.43;;;;;;;4.25;86.45;92905.25;5090165;28;20409;-62
2021/12/27 04:50:11;;;;;;;12.93;7.63;;;;;;;4.37;85.72;92920.97;5090116;28;20028;-62
2021/12/27 04:52:36;;;;;;;17.92;9.88;;;;;;;4.37;85.53;92920.97;5090011;28;20113;-62
2021/12/27 04:55:04;;;;;;;19.27;11.02;;;;;;;4.44;85.65;92922.34;5089962;28;20059;-61
2021/12/27 04:57:29;;;;;;;13.80;8.52;;;;;;;4.49;85.45;92921.50;5124700;28;20083;-61
2021/12/27 04:59:55;;;;;;;11.85;7.65;;;;;;;4.50;85.57;92929.19;5110574;28;20039;-61
2021/12/27 05:02:20;;;;;;;10.65;7.45;;;;;;;4.53;84.82;92919.19;5108924;28;20043;-61
2021/12/27 05:04:46;;;;;;;10.27;7.28;;;;;;;4.27;85.01;92921.84;5110626;28;20028;-59
2021/12/27 05:07:11;;;;;;;11.10;7.57;;;;;;;4.36;84.28;92918.75;5109796;28;20120;-59
2021/12/27 05:09:37;;;;;;;82.03;42.17;;;;;;;4.05;85.29;92928.41;5109048;28;20107;-58
2021/12/27 05:12:03;;;;;;;38.13;20.00;;;;;;;4.03;84.97;92916.53;5110118;28;20499;-59
2021/12/27 05:14:28;;;;;;;21.35;12.25;;;;;;;4.19;84.79;92931.94;5112762;28;20086;-60
2021/12/27 05:16:54;;;;;;;94.30;58.10;;;;;;;3.91;86.71;92935.06;5128910;28;20422;-61
2021/12/27 05:19:20;;;;;;;40.58;24.85;;;;;;;4.09;87.06;92939.78;5123737;28;20097;-60
2021/12/27 05:21:45;;;;;;;19.05;12.70;;;;;;;3.89;86.33;92915.75;5130680;28;20031;-60
2021/12/27 05:24:13;;;;;;;20.60;11.77;;;;;;;4.05;86.36;92925.66;5130657;28;20016;-59
2021/12/27 05:26:39;;;;;;;19.15;9.13;;;;;;;4.22;85.36;92933.63;5130664;28;20078;-58
2021/12/27 05:29:05;;;;;;;17.77;8.63;;;;;;;4.16;84.70;92924.78;5122651;28;20074;-59
2021/12/27 05:31:30;;;;;;;13.40;8.25;;;;;;;4.17;84.51;92935.19;5127252;28;20043;-59
2021/12/27 05:33:56;;;;;;;15.48;8.05;;;;;;;4.03;83.92;92941.84;5109887;28;20081;-59
2021/12/27 05:36:21;;;;;;;15.98;9.68;;;;;;;3.98;84.64;92937.22;5109981;28;20028;-59
2021/12/27 05:38:47;;;;;;;16.38;9.43;;;;;;;3.93;85.71;92942.75;5110390;28;20049;-59
2021/12/27 05:41:13;;;;;;;75.70;40.83;;;;;;;3.92;86.27;92938.56;5109934;28;20051;-59
2021/12/27 05:43:38;;;;;;;20.83;13.23;;;;;;;3.73;86.63;92930.34;5109983;28;20069;-61
2021/12/27 05:46:04;;;;;;;22.10;12.98;;;;;;;3.83;86.53;92943.09;5110716;28;20243;-58
2021/12/27 05:48:30;;;;;;;38.85;25.52;;;;;;;3.59;86.99;92942.47;5114060;28;20462;-58
2021/12/27 05:50:55;;;;;;;36.72;22.05;;;;;;;3.67;87.65;92943.34;5112513;28;20071;-58
2021/12/27 05:53:22;;;;;;;23.30;16.02;;;;;;;3.80;87.42;92955.09;5092850;28;20046;-57
2021/12/27 05:55:48;;;;;;;14.73;9.82;;;;;;;3.80;86.75;92943.41;5099456;28;20019;-56
2021/12/27 05:58:13;;;;;;;10.65;6.18;;;;;;;3.84;86.62;92952.03;5099372;28;20038;-58
2021/12/27 06:00:39;;;;;;;11.25;6.90;;;;;;;3.75;86.87;92936.03;5099367;28;20564;-59
2021/12/27 06:03:05;;;;;;;10.95;8.05;;;;;;;3.66;87.19;92918.03;5110104;27;20044;-58
2021/12/27 06:05:31;;;;;;;15.60;9.55;;;;;;;3.83;87.36;92929.47;5113121;28;20034;-58
2021/12/27 06:07:57;;;;;;;21.83;14.00;;;;;;;3.74;87.40;92926.38;5113144;28;20031;-58
2021/12/27 06:10:22;;;;;;;74.70;41.88;;;;;;;3.81;87.52;92934.69;5109875;27;20169;-59
2021/12/27 06:12:48;;;;;;;58.80;31.25;;;;;;;3.64;87.07;92933.44;5110775;28;20024;-58
2021/12/27 06:15:14;;;;;;;33.17;16.80;;;;;;;3.85;87.01;92939.88;5108977;28;20028;-54
2021/12/27 06:17:42;;;;;;;23.08;13.15;;;;;;;3.83;87.96;92940.38;5110742;28;20031;-56
2021/12/27 06:20:11;;;;;;;15.88;11.02;;;;;;;3.95;87.80;92949.16;5110753;28;20031;-57
2021/12/27 06:22:38;;;;;;;16.70;9.70;;;;;;;4.06;87.31;92945.53;5110400;28;20055;-57
2021/12/27 06:25:04;;;;;;;11.10;6.78;;;;;;;4.14;87.46;92947.16;5109744;28;20454;-52
2021/12/27 06:27:31;;;;;;;10.57;7.07;;;;;;;4.14;87.30;92944.41;5110966;28;20035;-55
2021/12/27 06:29:58;;;;;;;7.97;5.97;;;;;;;4.08;87.12;92941.03;5108652;28;20536;-59
2021/12/27 06:32:24;;;;;;;12.20;5.75;;;;;;;4.17;86.92;92926.25;5096294;27;20040;-54
2021/12/27 06:34:51;;;;;;;9.00;5.22;;;;;;;4.28;86.65;92929.56;5089879;28;20119;-57
2021/12/27 06:37:16;;;;;;;26.95;5.60;;;;;;;4.01;86.16;92911.59;5090007;28;20054;-57
2021/12/27 06:39:42;;;;;;;15.52;8.30;;;;;;;3.88;87.57;92924.47;5090384;28;20020;-56
2021/12/27 06:42:08;;;;;;;20.65;11.40;;;;;;;4.01;87.35;92917.03;5095264;28;20119;-53
2021/12/27 06:44:34;;;;;;;11.60;7.15;;;;;;;4.23;87.33;92908.50;5104473;28;20061;-58
2021/12/27 06:47:00;;;;;;;20.23;13.57;;;;;;;4.09;88.10;92909.75;5092218;28;20028;-59
2021/12/27 06:49:31;;;;;;;13.93;8.70;;;;;;;4.27;87.91;92908.19;5104981;28;20416;-58
2021/12/27 06:51:57;;;;;;;10.70;7.13;;;;;;;4.49;86.88;92908.59;5089807;28;20051;-57
2021/12/27 06:54:23;;;;;;;8.05;6.03;;;;;;;4.65;87.15;92912.31;5089561;28;20024;-59
2021/12/27 06:56:48;;;;;;;10.95;6.40;;;;;;;4.70;86.49;92908.00;5089691;28;20027;-60
2021/12/27 06:59:14;;;;;;;9.48;6.05;;;;;;;4.96;86.30;92911.47;5089626;28;20096;-60
2021/12/27 07:01:40;;;;;;;21.85;13.95;;;;;;;4.93;84.90;92909.06;5089373;28;20556;-59
2021/12/27 07:04:05;;;;;;;14.38;10.43;;;;;;;5.09;84.64;92905.28;5089828;28;20107;-59
2021/12/27 07:06:31;;;;;;;6.82;5.50;;;;;;;5.20;83.58;92897.59;5089410;28;20421;-59
2021/12/27 07:08:57;;;;;;;7.57;5.30;;;;;;;5.24;83.48;92905.50;5088736;28;20040;-59
2021/12/27 07:11:22;;;;;;;8.32;6.28;;;;;;;5.31;83.55;92888.41;5089158;28;20034;-60
2021/12/27 07:13:48;;;;;;;11.88;7.07;;;;;;;5.31;82.82;92878.22;5088815;28;20506;-60
2021/12/27 07:16:14;;;;;;;7.85;5.22;;;;;;;5.59;83.23;92890.59;5088812;28;20081;-60
2021/12/27 07:18:40;;;;;;;6.25;4.72;;;;;;;5.84;81.98;92884.34;5088773;28;20028;-58
2021/12/27 07:21:06;;;;;;;6.22;4.75;;;;;;;6.26;80.62;92865.22;5085808;28;20036;-58
2021/12/27 07:23:32;;;;;;;4.13;3.08;;;;;;;6.68;78.56;92863.91;5088672;28;20044;-59
2021/12/27 07:25:57;;;;;;;4.50;3.28;;;;;;;7.03;76.99;92885.19;5070396;28;20515;-58
2021/12/27 07:28:23;;;;;;;11.85;6.55;;;;;;;7.15;75.53;92893.84;5086397;28;20101;-59
2021/12/27 07:30:49;;;;;;;11.55;7.97;;;;;;;7.21;75.31;92897.19;5087890;28;20106;-59
2021/12/27 07:33:15;;;;;;;10.77;7.72;;;;;;;7.15;75.17;92902.81;5088081;28;20094;-59
2021/12/27 07:35:40;;;;;;;11.27;6.07;;;;;;;7.07;75.11;92901.31;5087954;28;20020;-59
2021/12/27 07:38:06;;;;;;;7.22;4.53;;;;;;;7.03;75.14;92896.16;5088658;28;20028;-59
2021/12/27 07:40:31;;;;;;;5.38;3.40;;;;;;;7.08;75.46;92900.75;5088232;28;20056;-59
2021/12/27 07:42:57;;;;;;;4.20;3.42;;;;;;;7.10;74.89;92895.47;5088534;28;20024;-59
2021/12/27 07:45:23;;;;;;;8.88;5.50;;;;;;;6.86;74.97;92896.56;5087981;28;20023;-59
2021/12/27 07:47:48;;;;;;;14.60;8.73;;;;;;;6.68;76.05;92900.31;5086919;28;20535;-59
2021/12/27 07:50:14;;;;;;;18.95;10.50;;;;;;;6.61;76.58;92900.22;5087681;28;20409;-59
2021/12/27 07:52:41;;;;;;;11.13;7.28;;;;;;;6.64;76.74;92901.91;5105223;28;20643;-58
2021/12/27 07:55:07;;;;;;;31.08;17.30;;;;;;;6.64;76.48;92896.41;5069032;28;20037;-59
2021/12/27 07:57:33;;;;;;;45.33;22.48;;;;;;;6.74;76.35;92906.38;5079544;28;20075;-59
2021/12/27 08:00:00;;;;;;;27.17;13.02;;;;;;;6.82;75.93;92898.22;5085080;28;20024;-56
2021/12/27 08:02:26;;;;;;;9.32;5.43;;;;;;;6.85;75.94;92897.13;5089262;28;20081;-59
2021/12/27 08:04:52;;;;;;;13.98;8.07;;;;;;;6.54;76.23;92860.50;5089760;28;20024;-59
2021/12/27 08:07:18;;;;;;;10.73;5.65;;;;;;;6.89;75.97;92895.50;5086571;28;20143;-59
2021/12/27 08:09:44;;;;;;;8.00;6.07;;;;;;;6.96;75.67;92905.06;5087587;28;20047;-59
2021/12/27 08:12:12;;;;;;;31.73;20.25;;;;;;;6.96;75.39;92912.56;5092753;28;20038;-56
2021/12/27 08:14:39;;;;;;;23.50;15.85;;;;;;;6.87;76.00;92911.78;5108662;28;20062;-56
2021/12/27 08:17:04;;;;;;;48.63;24.55;;;;;;;6.93;75.55;92906.13;5105645;28;20028;-56
2021/12/27 08:19:30;;;;;;;38.85;22.23;;;;;;;7.12;74.95;92908.66;5087598;28;20141;-55
2021/12/27 08:21:56;;;;;;;85.15;38.42;;;;;;;7.22;74.53;92909.63;5086858;28;20501;-55
2021/12/27 08:24:21;;;;;;;84.47;39.05;;;;;;;7.16;73.69;92906.31;5085609;28;20024;-56
2021/12/27 08:26:47;;;;;;;85.07;42.83;;;;;;;7.09;74.12;92918.72;5093672;28;20027;-53
2021/12/27 08:29:13;;;;;;;87.47;43.42;;;;;;;7.07;74.26;92895.81;5092843;28;20028;-54
2021/12/27 08:31:39;;;;;;;22.45;13.35;;;;;;;7.19;74.14;92913.47;5091746;28;20046;-52
2021/12/27 08:34:04;;;;;;;9.63;5.55;;;;;;;7.24;74.48;92907.06;5095570;28;20039;-53
2021/12/27 08:36:30;;;;;;;5.72;4.93;;;;;;;7.33;73.85;92890.09;5090906;28;20024;-51
2021/12/27 08:38:56;;;;;;;15.18;10.65;;;;;;;7.46;73.65;92906.47;5087224;28;20028;-56
2021/12/27 08:41:27;;;;;;;10.52;8.63;;;;;;;7.55;73.31;92908.72;5087853;28;20039;-54
2021/12/27 08:43:56;;;;;;;11.18;7.07;;;;;;;7.53;72.74;92908.53;5088017;28;20071;-59
2021/12/27 08:46:22;;;;;;;7.18;4.90;;;;;;;7.48;72.97;92910.16;5095262;28;20070;-59
2021/12/27 08:48:48;;;;;;;4.40;4.00;;;;;;;7.44;73.00;92909.78;5101838;28;20023;-58
2021/12/27 08:51:13;;;;;;;8.50;5.68;;;;;;;7.57;72.57;92904.16;5094229;28;20059;-50
2021/12/27 08:53:40;;;;;;;14.20;7.55;;;;;;;7.24;72.92;92871.38;5108250;28;20121;-51
2021/12/27 08:56:05;;;;;;;4.13;3.72;;;;;;;7.54;72.78;92910.00;5108052;28;20039;-51
2021/12/27 08:58:31;;;;;;;8.20;3.75;;;;;;;7.36;71.95;92861.59;5090886;28;20031;-58
2021/12/27 09:00:57;;;;;;;8.10;4.72;;;;;;;7.75;71.61;92904.41;5092520;28;20107;-51
2021/12/27 09:03:22;;;;;;;11.13;7.20;;;;;;;7.76;70.99;92889.38;5093367;28;20028;-56
2021/12/27 09:05:48;;;;;;;5.40;3.83;;;;;;;7.82;71.02;92903.72;5110494;28;20138;-53
2021/12/27 09:08:14;;;;;;;7.03;3.28;;;;;;;7.90;70.88;92899.72;5107617;28;20045;-52
2021/12/27 09:10:40;;;;;;;6.63;4.60;;;;;;;7.89;71.02;92901.00;5108070;28;20121;-50
2021/12/27 09:13:05;;;;;;;8.75;5.57;;;;;;;7.98;70.68;92896.97;5107701;28;20428;-57
2021/12/27 09:15:31;;;;;;;10.13;6.65;;;;;;;8.19;69.42;92900.34;5107561;28;20039;-57
2021/12/27 09:17:57;;;;;;;8.57;5.63;;;;;;;8.22;69.54;92894.50;5106949;28;20416;-57
2021/12/27 09:20:25;;;;;;;10.27;7.35;;;;;;;8.27;69.26;92898.38;5098905;28;20109;-57
2021/12/27 09:22:51;;;;;;;8.65;6.53;;;;;;;8.07;68.94;92846.97;5104910;28;20044;-57
2021/12/27 09:25:17;;;;;;;8.40;6.93;;;;;;;8.31;68.76;92871.25;5091127;28;20031;-56
2021/12/27 09:27:43;;;;;;;5.30;4.00;;;;;;;8.41;68.67;92852.91;5102361;28;20028;-52
2021/12/27 09:30:10;;;;;;;4.43;3.20;;;;;;;8.53;67.66;92837.53;5099932;28;20127;-56
2021/12/27 09:32:36;;;;;;;5.70;4.63;;;;;;;8.61;68.03;92838.25;5103190;28;20027;-57
2021/12/27 09:35:03;;;;;;;10.00;6.82;;;;;;;8.62;67.83;92834.22;5093686;28;20040;-57
2021/12/27 09:37:29;;;;;;;10.85;8.43;;;;;;;8.81;67.40;92844.84;5091389;28;20027;-51
2021/12/27 09:39:55;;;;;;;15.15;11.10;;;;;;;8.81;67.71;92826.31;5090970;28;20393;-56
2021/12/27 09:42:22;;;;;;;12.15;9.43;;;;;;;8.81;67.06;92825.59;5092437;28;20513;-57
2021/12/27 09:44:48;;;;;;;10.20;7.80;;;;;;;8.88;66.97;92825.56;5110218;28;20047;-56
2021/12/27 09:47:14;;;;;;;17.77;11.27;;;;;;;9.00;66.88;92829.41;5110383;28;20039;-57
2021/12/27 09:49:41;;;;;;;10.38;7.07;;;;;;;8.96;66.47;92820.06;5108852;28;20485;-57
2021/12/27 09:52:07;;;;;;;12.35;7.85;;;;;;;9.02;66.25;92826.84;5096077;28;20040;-57
2021/12/27 09:54:34;;;;;;;11.75;8.05;;;;;;;8.78;66.04;92790.91;5089243;28;20028;-57
2021/12/27 09:57:00;;;;;;;10.90;7.28;;;;;;;8.89;66.58;92815.28;5087804;28;20031;-50
2021/12/27 09:59:26;;;;;;;10.65;6.45;;;;;;;8.74;66.83;92816.06;5088463;28;20032;-57
2021/12/27 10:01:53;;;;;;;7.93;4.95;;;;;;;8.80;66.98;92810.34;5089409;28;20024;-57
2021/12/27 10:04:20;;;;;;;12.20;4.70;;;;;;;8.56;66.68;92770.38;5089518;28;20048;-58
2021/12/27 10:06:47;;;;;;;6.18;4.18;;;;;;;8.84;66.59;92794.94;5111904;27;20028;-64
2021/12/27 10:09:13;;;;;;;6.28;4.90;;;;;;;8.84;66.69;92803.19;5086115;28;20028;-62
2021/12/27 10:11:42;;;;;;;6.40;4.60;;;;;;;8.91;66.11;92807.94;5089945;28;20028;-62
2021/12/27 10:14:20;;;;;;;8.75;5.43;;;;;;;8.89;66.63;92791.25;5090096;28;20047;-62
2021/12/27 10:17:10;;;;;;;9.07;5.05;;;;;;;8.89;66.85;92776.75;5090889;28;20050;-60
2021/12/27 10:19:36;;;;;;;15.82;9.65;;;;;;;8.95;66.51;92775.28;5104439;28;20122;-58
2021/12/27 10:22:02;;;;;;;13.05;8.57;;;;;;;9.05;65.98;92778.91;5111324;28;20110;-57
2021/12/27 10:24:29;;;;;;;6.88;4.60;;;;;;;8.71;66.35;92750.34;5110227;28;20038;-57
2021/12/27 10:26:57;;;;;;;5.80;4.38;;;;;;;8.92;66.63;92770.88;5110725;28;20039;-57
2021/12/27 10:29:25;;;;;;;38.45;22.98;;;;;;;9.00;66.52;92774.34;5109775;28;20084;-56
2021/12/27 10:31:50;;;;;;;37.08;15.95;;;;;;;9.03;66.43;92778.72;5110603;28;20039;-55
2021/12/27 10:34:17;;;;;;;23.73;14.80;;;;;;;9.07;65.97;92776.31;5093183;28;20520;-59
2021/12/27 10:37:00;;;;;;;12.70;7.78;;;;;;;9.18;65.67;92772.47;5089433;28;20027;-58
2021/12/27 10:40:22;;;;;;;9.23;6.53;;;;;;;9.03;66.09;92778.72;5088763;28;20028;-50
2021/12/27 10:42:50;;;;;;;10.80;6.95;;;;;;;9.05;65.48;92761.69;5026594;28;20033;-60
2021/12/27 10:45:20;;;;;;;7.75;5.15;;;;;;;8.88;65.82;92781.53;5076249;28;20051;-57
2021/12/27 10:48:00;;;;;;;10.23;5.72;;;;;;;9.04;65.67;92791.22;5088956;28;20124;-57
2021/12/27 10:50:37;;;;;;;15.00;9.23;;;;;;;9.06;65.53;92783.13;5088646;28;20036;-59
2021/12/27 10:53:07;;;;;;;47.67;10.68;;;;;;;9.13;65.74;92789.91;5087935;28;20028;-55
2021/12/27 10:55:35;;;;;;;14.10;8.20;;;;;;;9.11;65.59;92800.75;5089737;28;20099;-55
2021/12/27 10:58:23;;;;;;;11.02;6.78;;;;;;;9.03;65.50;92800.75;5088089;28;20134;-55
2021/12/27 11:01:04;;;;;;;8.17;5.93;;;;;;;9.03;65.89;92789.03;5088944;28;20107;-56
2021/12/27 11:03:34;;;;;;;19.52;6.95;;;;;;;9.18;65.41;92797.97;5089844;28;20049;-54
2021/12/27 11:06:03;;;;;;;14.23;9.85;;;;;;;9.16;65.45;92789.53;5089570;28;20032;-55
2021/12/27 11:08:29;;;;;;;16.08;9.63;;;;;;;9.09;65.41;92771.03;5087929;28;20020;-54
2021/12/27 11:10:56;;;;;;;16.48;10.05;;;;;;;9.23;64.76;92771.50;5087817;28;20458;-55
2021/12/27 11:13:22;;;;;;;11.88;7.75;;;;;;;8.99;64.87;92755.59;5087373;28;20158;-55
2021/12/27 11:15:48;;;;;;;8.75;6.38;;;;;;;9.26;65.12;92789.69;5087708;28;20077;-54
2021/12/27 11:18:15;;;;;;;17.45;9.95;;;;;;;9.37;64.89;92785.78;5087578;28;20028;-54
2021/12/27 11:20:56;;;;;;;11.95;7.30;;;;;;;9.30;64.98;92775.53;5087468;28;20028;-54
2021/12/27 11:23:24;;;;;;;9.80;7.35;;;;;;;9.09;64.79;92740.72;5088173;28;20024;-60
2021/12/27 11:26:06;;;;;;;45.28;20.08;;;;;;;9.35;64.72;92766.34;5087544;28;20035;-60
2021/12/27 11:28:34;;;;;;;45.40;19.92;;;;;;;9.51;64.52;92768.47;5086542;28;20051;-61
2021/12/27 11:31:08;;;;;;;22.65;12.15;;;;;;;9.59;64.33;92760.16;5088153;28;20030;-60